createdAt,value
2019-02-27T00:03:47.346Z,62.67
2019-02-27T00:08:49.943Z,84.23
2019-02-27T00:13:51.721Z,100.27
2019-02-27T00:18:53.773Z,81.47
2019-02-27T00:23:56.880Z,79.23
2019-02-27T00:28:59.303Z,92.17
2019-02-27T00:34:00.979Z,89.67
2019-02-27T00:39:04.196Z,66.50
2019-02-27T00:44:06.720Z,55.73
2019-02-27T00:49:08.475Z,63.20
2019-02-27T00:54:10.158Z,83.73
2019-02-27T00:59:11.844Z,104.37
2019-02-27T01:04:13.454Z,97.90
2019-02-27T01:09:15.310Z,88.30
2019-02-27T01:14:17.076Z,78.80
2019-02-27T01:19:18.759Z,94.93
2019-02-27T01:24:20.844Z,100.20
2019-02-27T01:29:22.554Z,102.53
2019-02-27T01:34:24.534Z,87.13
2019-02-27T01:39:26.197Z,69.03
2019-02-27T01:44:28.182Z,106.83
2019-02-27T01:49:29.854Z,99.43
2019-02-27T01:54:31.635Z,85.40
2019-02-27T01:59:33.731Z,107.20
2019-02-27T02:04:35.598Z,103.60
2019-02-27T02:09:37.761Z,114.13
2019-02-27T02:14:43.225Z,105.47
2019-02-27T02:20:05.401Z,96.80
2019-02-27T02:25:42.796Z,59.70
2019-02-27T02:30:54.427Z,71.43
2019-02-27T02:36:06.073Z,108.50
2019-02-27T02:41:30.589Z,98.60
2019-02-27T02:46:51.194Z,127.27
2019-02-27T02:51:56.494Z,114.40
2019-02-27T02:57:10.592Z,96.43
2019-02-27T03:02:32.563Z,103.43
2019-02-27T03:07:46.781Z,106.40
2019-02-27T03:13:07.130Z,91.70
2019-02-27T03:18:31.565Z,87.23
2019-02-27T03:23:52.049Z,68.73
2019-02-27T03:29:02.037Z,72.63
2019-02-27T03:34:10.401Z,64.83
2019-02-27T03:39:27.262Z,55.73
2019-02-27T03:44:47.449Z,72.13
2019-02-27T03:49:55.735Z,80.77
2019-02-27T03:55:23.417Z,90.57
2019-02-27T04:00:28.752Z,89.37
2019-02-27T04:06:02.605Z,90.27
2019-02-27T04:11:06.056Z,80.97
2019-02-27T04:16:08.152Z,76.77
2019-02-27T04:21:09.768Z,89.00
2019-02-27T04:26:11.636Z,82.13
2019-02-27T04:31:13.283Z,86.27
2019-02-27T04:36:15.285Z,76.97
2019-02-27T04:41:18.120Z,85.93
2019-02-27T04:46:21.702Z,95.57
2019-02-27T04:51:24.351Z,82.40
2019-02-27T04:56:25.955Z,82.03
2019-02-27T05:01:28.533Z,94.07
2019-02-27T05:06:30.150Z,94.60
2019-02-27T05:11:32.182Z,100.50
2019-02-27T05:16:33.839Z,97.90
2019-02-27T05:21:35.585Z,83.27
2019-02-27T05:26:38.100Z,98.57
2019-02-27T05:31:40.382Z,77.90
2019-02-27T05:36:42.373Z,85.00
2019-02-27T05:41:43.964Z,84.67
2019-02-27T05:46:48.622Z,72.43
2019-02-27T05:51:52.534Z,91.03
2019-02-27T05:56:54.264Z,80.07
2019-02-27T06:01:56.423Z,78.23
2019-02-27T06:06:58.162Z,73.00
2019-02-27T06:11:59.874Z,77.20
2019-02-27T06:17:12.900Z,84.13
2019-02-27T06:22:14.620Z,80.63
2019-02-27T06:27:16.531Z,80.93
2019-02-27T06:32:18.501Z,87.03
2019-02-27T06:37:20.206Z,74.77
2019-02-27T06:42:21.871Z,75.73
2019-02-27T06:47:23.865Z,89.40
2019-02-27T06:52:25.462Z,73.17
2019-02-27T06:57:27.112Z,79.80
2019-02-27T07:02:28.746Z,80.67
2019-02-27T07:07:31.289Z,79.40
2019-02-27T07:12:33.608Z,78.20
2019-02-27T07:17:37.581Z,83.67
2019-02-27T07:22:39.329Z,75.80
2019-02-27T07:27:40.939Z,73.87
2019-02-27T07:32:43.328Z,70.03
2019-02-27T07:37:48.059Z,72.07
2019-02-27T07:42:48.928Z,65.00
2019-02-27T07:47:50.607Z,64.57
2019-02-27T07:52:52.706Z,67.13
2019-02-27T07:57:58.520Z,56.13
2019-02-27T08:02:58.546Z,55.40
2019-02-27T08:08:00.196Z,56.20
2019-02-27T08:13:01.982Z,85.20
2019-02-27T08:18:03.745Z,56.43
2019-02-27T08:23:06.982Z,50.53
2019-02-27T08:28:08.868Z,74.20
2019-02-27T08:33:11.785Z,66.07
2019-02-27T08:38:13.433Z,78.73
2019-02-27T08:43:15.104Z,77.77
2019-02-27T08:48:17.540Z,90.30
2019-02-27T08:53:20.103Z,75.00
2019-02-27T08:58:21.874Z,87.70
2019-02-27T09:03:23.701Z,74.37
2019-02-27T09:08:25.411Z,88.27
2019-02-27T09:13:27.161Z,87.93
2019-02-27T09:18:33.354Z,95.27
2019-02-27T09:23:35.125Z,92.70
2019-02-27T09:28:37.141Z,91.47
2019-02-27T09:33:39.258Z,83.53
2019-02-27T09:38:41.007Z,99.93
2019-02-27T09:43:42.774Z,92.57
2019-02-27T09:48:44.553Z,85.37
2019-02-27T09:53:46.642Z,89.40
2019-02-27T09:58:48.331Z,97.33
2019-02-27T10:03:52.058Z,99.23
2019-02-27T10:08:53.647Z,101.63
2019-02-27T10:13:55.407Z,104.73
2019-02-27T10:18:57.082Z,100.17
2019-02-27T10:23:58.765Z,94.47
2019-02-27T10:29:00.445Z,92.17
2019-02-27T10:34:02.284Z,107.87
2019-02-27T10:39:05.074Z,106.07
2019-02-27T10:44:06.929Z,89.60
2019-02-27T10:49:08.601Z,96.40
2019-02-27T10:54:10.246Z,82.93
2019-02-27T10:59:12.267Z,92.20
2019-02-27T11:04:15.367Z,86.63
2019-02-27T11:09:21.461Z,98.70
2019-02-27T11:14:23.302Z,100.13
2019-02-27T11:19:29.645Z,98.47
2019-02-27T11:24:31.704Z,88.13
2019-02-27T11:29:33.734Z,91.70
2019-02-27T11:34:35.449Z,81.77
2019-02-27T11:39:37.574Z,83.10
2019-02-27T11:44:39.351Z,96.40
2019-02-27T11:49:41.329Z,88.37
2019-02-27T11:54:43.850Z,85.00
2019-02-27T11:59:46.884Z,87.10
2019-02-27T12:04:53.513Z,89.90
2019-02-27T12:09:53.364Z,85.53
2019-02-27T12:14:55.100Z,89.83
2019-02-27T12:19:56.835Z,91.47
2019-02-27T12:24:58.558Z,87.03
2019-02-27T12:30:03.036Z,77.87
2019-02-27T12:35:10.835Z,77.90
2019-02-27T12:40:17.479Z,80.73
2019-02-27T12:45:22.028Z,76.60
2019-02-27T12:50:30.863Z,75.40
2019-02-27T12:55:35.399Z,80.47
2019-02-27T13:00:34.763Z,79.63
2019-02-27T13:05:36.505Z,93.33
2019-02-27T13:10:38.285Z,83.67
2019-02-27T13:15:41.079Z,84.73
2019-02-27T13:20:45.693Z,85.60
2019-02-27T13:25:48.036Z,82.77
2019-02-27T13:30:50.058Z,87.03
2019-02-27T13:35:51.805Z,83.40
2019-02-27T13:40:53.818Z,89.23
2019-02-27T13:45:58.105Z,78.90
2019-02-27T13:51:02.397Z,77.20
2019-02-27T13:56:03.805Z,75.47
2019-02-27T14:01:07.639Z,79.67
2019-02-27T14:06:16.103Z,78.03
2019-02-27T14:11:24.954Z,80.80
2019-02-27T14:16:27.442Z,81.60
2019-02-27T14:21:29.033Z,91.67
2019-02-27T14:26:30.673Z,89.67
2019-02-27T14:31:32.597Z,85.60
2019-02-27T14:36:34.293Z,107.70
2019-02-27T14:41:35.974Z,95.40
2019-02-27T14:46:37.617Z,96.50
2019-02-27T14:51:41.201Z,89.17
2019-02-27T14:56:42.888Z,88.80
2019-02-27T15:01:48.408Z,93.53
2019-02-27T15:06:50.369Z,88.23
2019-02-27T15:11:52.444Z,88.00
2019-02-27T15:16:54.163Z,79.93
2019-02-27T15:21:56.317Z,85.20
2019-02-27T15:26:58.039Z,80.23
2019-02-27T15:32:00.060Z,84.37
2019-02-27T15:37:04.139Z,74.37
2019-02-27T15:42:08.575Z,83.13
2019-02-27T15:47:09.333Z,83.10
2019-02-27T15:52:11.014Z,74.60
2019-02-27T15:57:17.308Z,75.77
2019-02-27T16:02:16.638Z,75.40
2019-02-27T16:07:18.284Z,82.47
2019-02-27T16:12:20.169Z,77.73
2019-02-27T16:17:21.844Z,83.83
2019-02-27T16:22:23.498Z,88.07
2019-02-27T16:27:25.511Z,94.03
2019-02-27T16:32:27.544Z,74.50
2019-02-27T16:37:29.152Z,74.13
2019-02-27T16:42:31.697Z,71.47
2019-02-27T16:47:33.547Z,79.10
2019-02-27T16:52:35.226Z,82.63
2019-02-27T16:57:36.887Z,83.70
2019-02-27T17:02:39.053Z,90.40
2019-02-27T17:07:41.537Z,90.90
2019-02-27T17:12:43.152Z,87.33
2019-02-27T17:17:44.785Z,95.70
2019-02-27T17:22:46.481Z,90.83
2019-02-27T17:27:50.932Z,81.93
2019-02-27T17:32:52.230Z,93.67
2019-02-27T17:37:54.281Z,89.33
2019-02-27T17:42:56.309Z,93.80
2019-02-27T17:47:58.408Z,91.27
2019-02-27T17:53:00.168Z,101.53
2019-02-27T17:58:01.919Z,146.43
2019-02-27T18:03:06.247Z,109.53
2019-02-27T18:08:09.955Z,105.67
2019-02-27T18:13:11.787Z,104.17
2019-02-27T18:18:13.512Z,108.20
2019-02-27T18:23:15.349Z,104.10
2019-02-27T18:28:17.074Z,98.30
2019-02-27T18:33:19.305Z,105.67
2019-02-27T18:38:21.215Z,105.97
2019-02-27T18:43:23.010Z,92.57
2019-02-27T18:48:24.668Z,86.20
2019-02-27T18:53:26.584Z,96.87
2019-02-27T18:58:28.317Z,104.93
2019-02-27T19:03:30.603Z,109.63
2019-02-27T19:08:32.797Z,102.97
2019-02-27T19:13:34.666Z,111.40
2019-02-27T19:18:38.547Z,107.23
2019-02-27T19:23:40.285Z,101.60
2019-02-27T19:28:41.961Z,98.73
2019-02-27T19:33:44.464Z,98.57
2019-02-27T19:38:47.546Z,107.27
2019-02-27T19:43:54.801Z,110.73
2019-02-27T19:48:54.632Z,110.47
2019-02-27T19:53:56.472Z,99.47
2019-02-27T19:58:58.297Z,105.00
2019-02-27T20:04:00.519Z,103.10
2019-02-27T20:09:04.398Z,98.10
2019-02-27T20:14:06.322Z,125.47
2019-02-27T20:19:08.247Z,114.30
2019-02-27T20:24:14.384Z,110.80
2019-02-27T20:29:14.377Z,124.00
2019-02-27T20:34:16.871Z,121.70
2019-02-27T20:39:23.184Z,119.97
2019-02-27T20:44:25.539Z,123.30
2019-02-27T20:49:27.215Z,132.20
2019-02-27T20:54:28.988Z,135.90
2019-02-27T20:59:30.764Z,139.07
2019-02-27T21:04:35.240Z,138.37
2019-02-27T21:09:36.997Z,142.30
2019-02-27T21:14:38.787Z,147.37
2019-02-27T21:19:40.560Z,150.50
2019-02-27T21:24:43.054Z,160.70
2019-02-27T21:29:44.837Z,158.23
2019-02-27T21:34:46.613Z,157.30
2019-02-27T21:39:49.665Z,159.33
2019-02-27T21:44:51.408Z,159.03
2019-02-27T21:49:53.085Z,179.53
2019-02-27T21:54:54.768Z,162.70
2019-02-27T21:59:56.452Z,185.77
2019-02-27T22:04:58.226Z,179.33
2019-02-27T22:10:00.643Z,190.67
2019-02-27T22:15:04.253Z,206.63
2019-02-27T22:20:07.154Z,194.47
2019-02-27T22:25:10.876Z,212.00
2019-02-27T22:30:15.152Z,206.47
2019-02-27T22:35:16.869Z,211.63
2019-02-27T22:40:21.124Z,205.10
2019-02-27T22:45:22.781Z,224.37
2019-02-27T22:50:25.008Z,229.10
2019-02-27T22:55:26.772Z,236.67
2019-02-27T23:00:56.256Z,228.90
2019-02-27T23:05:58.556Z,223.80
2019-02-27T23:11:02.972Z,231.33
2019-02-27T23:16:04.819Z,229.13
2019-02-27T23:21:06.514Z,241.77
2019-02-27T23:26:08.286Z,259.07
2019-02-27T23:31:10.027Z,265.57
2019-02-27T23:36:11.885Z,284.33
2019-02-27T23:41:14.118Z,267.17
2019-02-27T23:46:18.466Z,265.20
2019-02-27T23:51:20.250Z,261.13
2019-02-27T23:56:21.964Z,235.40
